createdAt,value
2023-04-29T00:02:40.835Z,65.07
2023-04-29T00:05:42.531Z,65.10
2023-04-29T00:08:44.770Z,64.61
2023-04-29T00:11:46.584Z,64.71
2023-04-29T00:14:48.068Z,64.83
2023-04-29T00:17:50.212Z,65.21
2023-04-29T00:20:51.589Z,65.10
2023-04-29T00:23:53.763Z,65.30
2023-04-29T00:26:55.037Z,65.50
2023-04-29T00:29:56.758Z,65.26
2023-04-29T00:32:58.053Z,66.62
2023-04-29T00:35:59.548Z,65.83
2023-04-29T00:39:02.554Z,65.12
2023-04-29T00:42:04.178Z,65.48
2023-04-29T00:45:08.173Z,65.54
2023-04-29T00:48:09.834Z,65.00
2023-04-29T00:51:11.540Z,65.52
2023-04-29T00:54:13.663Z,65.07
2023-04-29T00:57:15.090Z,65.92
2023-04-29T01:00:16.932Z,66.27
2023-04-29T01:03:19.326Z,67.16
2023-04-29T01:06:29.602Z,67.32
2023-04-29T01:09:47.075Z,68.11
2023-04-29T01:12:59.871Z,69.78
2023-04-29T01:16:03.350Z,69.04
2023-04-29T01:19:16.904Z,71.14
2023-04-29T01:22:19.531Z,70.90
2023-04-29T01:25:21.849Z,72.44
2023-04-29T01:28:37.992Z,72.60
2023-04-29T01:31:48.944Z,72.79
2023-04-29T01:35:04.375Z,72.47
2023-04-29T01:38:18.155Z,73.30
2023-04-29T01:41:28.197Z,73.89
2023-04-29T01:44:31.664Z,73.08
2023-04-29T01:47:33.714Z,74.19
2023-04-29T01:50:35.034Z,74.32
2023-04-29T01:53:36.483Z,74.59
2023-04-29T01:56:38.554Z,75.97
2023-04-29T01:59:40.169Z,75.56
2023-04-29T02:02:41.675Z,74.78
2023-04-29T02:05:43.210Z,75.55
2023-04-29T02:08:44.491Z,74.54
2023-04-29T02:11:46.630Z,76.53
2023-04-29T02:14:51.977Z,77.32
2023-04-29T02:17:53.828Z,77.06
2023-04-29T02:21:00.373Z,77.54
2023-04-29T02:24:01.810Z,75.86
2023-04-29T02:27:05.292Z,77.21
2023-04-29T02:30:07.680Z,77.97
2023-04-29T02:33:09.250Z,77.10
2023-04-29T02:36:10.690Z,78.04
2023-04-29T02:39:12.096Z,78.38
2023-04-29T02:42:14.149Z,77.97
2023-04-29T02:45:15.873Z,78.87
2023-04-29T02:48:17.490Z,78.38
2023-04-29T02:51:19.174Z,79.10
2023-04-29T02:54:20.985Z,77.47
2023-04-29T02:57:23.073Z,77.68
2023-04-29T03:00:24.816Z,79.24
2023-04-29T03:03:26.274Z,78.06
2023-04-29T03:06:28.110Z,78.55
2023-04-29T03:09:30.044Z,79.62
2023-04-29T03:12:32.220Z,79.37
2023-04-29T03:15:33.617Z,79.62
2023-04-29T03:18:34.913Z,79.71
2023-04-29T03:21:36.432Z,80.11
2023-04-29T03:24:38.182Z,79.91
2023-04-29T03:27:40.336Z,80.73
2023-04-29T03:30:41.672Z,80.65
2023-04-29T03:33:43.140Z,79.24
2023-04-29T03:36:44.570Z,80.01
2023-04-29T03:39:45.963Z,79.66
2023-04-29T03:42:47.995Z,79.85
2023-04-29T03:45:49.367Z,80.58
2023-04-29T03:48:51.315Z,80.80
2023-04-29T03:51:52.845Z,80.99
2023-04-29T03:54:54.180Z,80.65
2023-04-29T03:57:56.100Z,79.25
2023-04-29T04:00:57.617Z,78.61
2023-04-29T04:03:59.228Z,79.86
2023-04-29T04:07:00.735Z,79.99
2023-04-29T04:10:02.102Z,80.77
2023-04-29T04:13:04.133Z,81.18
2023-04-29T04:16:05.700Z,81.99
2023-04-29T04:19:07.089Z,82.86
2023-04-29T04:22:08.447Z,81.93
2023-04-29T04:25:10.715Z,82.22
2023-04-29T04:28:12.684Z,82.78
2023-04-29T04:31:14.380Z,83.35
2023-04-29T04:34:15.894Z,82.37
2023-04-29T04:37:17.596Z,83.25
2023-04-29T04:40:19.021Z,82.77
2023-04-29T04:43:21.152Z,83.55
2023-04-29T04:46:22.475Z,83.39
2023-04-29T04:49:24.584Z,83.70
2023-04-29T04:52:25.929Z,83.76
2023-04-29T04:55:27.368Z,84.43
2023-04-29T04:58:30.913Z,82.83
2023-04-29T05:01:32.412Z,83.40
2023-04-29T05:04:33.885Z,83.57
2023-04-29T05:07:35.428Z,84.49
2023-04-29T05:10:36.768Z,84.34
2023-04-29T05:13:38.957Z,84.22
2023-04-29T05:16:40.395Z,84.53
2023-04-29T05:19:41.688Z,84.89
2023-04-29T05:22:42.998Z,85.40
2023-04-29T05:25:44.525Z,85.80
2023-04-29T05:28:46.713Z,86.10
2023-04-29T05:31:48.024Z,85.53
2023-04-29T05:34:49.887Z,85.17
2023-04-29T05:37:51.159Z,85.03
2023-04-29T05:40:52.752Z,85.48
2023-04-29T05:43:54.690Z,84.57
2023-04-29T05:46:55.992Z,85.50
2023-04-29T05:49:57.286Z,86.38
2023-04-29T05:52:58.630Z,85.63
2023-04-29T05:56:00.110Z,86.63
2023-04-29T05:59:02.065Z,86.36
2023-04-29T06:02:03.448Z,86.91
2023-04-29T06:05:05.642Z,86.48
2023-04-29T06:08:07.514Z,86.76
2023-04-29T06:11:08.796Z,85.97
2023-04-29T06:14:10.915Z,84.88
2023-04-29T06:17:12.541Z,85.34
2023-04-29T06:20:14.011Z,85.68
2023-04-29T06:23:15.461Z,85.29
2023-04-29T06:26:16.857Z,84.96
2023-04-29T06:29:18.832Z,84.62
2023-04-29T06:32:20.127Z,85.36
2023-04-29T06:35:22.257Z,85.83
2023-04-29T06:38:23.542Z,85.10
2023-04-29T06:41:24.979Z,84.02
2023-04-29T06:44:27.213Z,84.14
2023-04-29T06:47:28.785Z,83.66
2023-04-29T06:50:30.536Z,83.85
2023-04-29T06:53:31.975Z,84.21
2023-04-29T06:56:33.372Z,83.30
2023-04-29T06:59:35.678Z,83.21
2023-04-29T07:02:38.332Z,81.64
2023-04-29T07:05:41.160Z,81.10
2023-04-29T07:08:42.582Z,81.62
2023-04-29T07:11:43.872Z,82.68
2023-04-29T07:14:46.299Z,82.13
2023-04-29T07:17:47.727Z,82.38
2023-04-29T07:20:50.526Z,82.29
2023-04-29T07:23:51.900Z,81.33
2023-04-29T07:26:53.380Z,80.70
2023-04-29T07:29:55.907Z,82.53
2023-04-29T07:32:57.391Z,81.89
2023-04-29T07:35:58.882Z,79.67
2023-04-29T07:39:00.254Z,80.32
2023-04-29T07:42:02.340Z,81.04
2023-04-29T07:45:05.388Z,81.15
2023-04-29T07:48:06.910Z,80.78
2023-04-29T07:51:12.939Z,79.13
2023-04-29T07:54:15.864Z,79.43
2023-04-29T07:57:17.129Z,80.39
2023-04-29T08:00:19.461Z,80.95
2023-04-29T08:03:21.370Z,79.97
2023-04-29T08:06:23.071Z,80.45
2023-04-29T08:09:24.526Z,80.39
2023-04-29T08:12:25.846Z,80.68
2023-04-29T08:15:28.015Z,81.40
2023-04-29T08:18:29.324Z,79.31
2023-04-29T08:21:31.460Z,77.73
2023-04-29T08:24:34.328Z,79.28
2023-04-29T08:27:35.663Z,79.77
2023-04-29T08:30:40.235Z,80.57
2023-04-29T08:33:41.560Z,81.06
2023-04-29T08:36:43.069Z,78.08
2023-04-29T08:39:46.103Z,78.91
2023-04-29T08:42:49.283Z,78.65
2023-04-29T08:45:52.082Z,78.64
2023-04-29T08:48:55.735Z,77.38
2023-04-29T08:51:57.181Z,78.17
2023-04-29T08:54:59.095Z,77.51
2023-04-29T08:58:02.226Z,77.48
2023-04-29T09:01:08.417Z,77.29
2023-04-29T09:04:17.697Z,77.02
2023-04-29T09:07:22.475Z,78.04
2023-04-29T09:10:24.069Z,77.63
2023-04-29T09:13:26.111Z,76.64
2023-04-29T09:16:28.630Z,77.94
2023-04-29T09:19:31.441Z,78.41
2023-04-29T09:22:47.521Z,78.53
2023-04-29T09:25:55.996Z,77.92
2023-04-29T09:29:08.472Z,77.20
2023-04-29T09:32:20.601Z,76.66
2023-04-29T09:35:24.204Z,76.64
2023-04-29T09:38:25.532Z,76.06
2023-04-29T09:41:26.788Z,75.73
2023-04-29T09:44:32.991Z,74.68
2023-04-29T09:47:36.514Z,76.11
2023-04-29T09:50:38.645Z,76.71
2023-04-29T09:53:39.944Z,76.41
2023-04-29T09:56:49.328Z,75.26
2023-04-29T09:59:50.886Z,75.59
2023-04-29T10:02:57.312Z,75.12
2023-04-29T10:05:59.774Z,74.43
2023-04-29T10:09:01.183Z,74.36
2023-04-29T10:12:05.503Z,73.57
2023-04-29T10:15:16.407Z,73.20
2023-04-29T10:18:21.085Z,73.77
2023-04-29T10:21:28.336Z,73.77
2023-04-29T10:24:30.182Z,74.51
2023-04-29T10:27:33.925Z,74.07
2023-04-29T10:30:36.698Z,71.96
2023-04-29T10:33:42.226Z,73.27
2023-04-29T10:36:45.064Z,72.40
2023-04-29T10:39:52.754Z,71.83
2023-04-29T10:42:54.858Z,71.41
2023-04-29T10:46:17.255Z,71.17
2023-04-29T10:49:23.029Z,70.13
2023-04-29T10:52:27.488Z,69.67
2023-04-29T10:55:28.896Z,69.77
2023-04-29T10:58:43.611Z,68.88
2023-04-29T11:01:47.234Z,68.39
2023-04-29T11:05:28.820Z,65.77
2023-04-29T11:08:31.055Z,65.54
2023-04-29T11:11:46.065Z,65.44
2023-04-29T11:14:50.235Z,63.63
2023-04-29T11:17:51.968Z,62.72
2023-04-29T11:21:15.147Z,61.97
2023-04-29T11:24:16.883Z,62.99
2023-04-29T11:27:19.960Z,63.65
2023-04-29T11:30:22.609Z,66.50
2023-04-29T11:33:24.460Z,66.68
2023-04-29T11:36:27.030Z,66.04
2023-04-29T11:39:28.557Z,65.78
2023-04-29T11:42:30.079Z,66.05
2023-04-29T11:45:35.528Z,66.49
2023-04-29T11:48:36.909Z,66.04
2023-04-29T11:51:39.037Z,66.50
2023-04-29T11:54:41.035Z,65.64
2023-04-29T11:57:42.955Z,66.28
2023-04-29T12:00:44.381Z,65.73
2023-04-29T12:03:45.942Z,65.60
2023-04-29T12:06:51.241Z,64.99
2023-04-29T12:09:52.563Z,65.79
2023-04-29T12:12:54.164Z,64.07
2023-04-29T12:15:56.842Z,64.33
2023-04-29T12:18:59.129Z,64.41
2023-04-29T12:22:03.343Z,63.40
2023-04-29T12:25:05.660Z,63.08
2023-04-29T12:28:11.900Z,63.67
2023-04-29T12:31:15.307Z,62.66
2023-04-29T12:34:16.673Z,61.82
2023-04-29T12:37:18.976Z,61.29
2023-04-29T12:40:20.968Z,60.95
2023-04-29T12:43:27.101Z,59.06
2023-04-29T12:46:28.635Z,58.86
2023-04-29T12:49:30.144Z,60.51
2023-04-29T12:52:32.118Z,59.46
2023-04-29T12:55:34.081Z,58.51
2023-04-29T12:58:35.516Z,57.94
2023-04-29T13:01:37.200Z,57.52
2023-04-29T13:04:39.958Z,58.13
2023-04-29T13:07:42.795Z,57.65
2023-04-29T13:10:49.942Z,58.75
2023-04-29T13:13:51.367Z,57.65
2023-04-29T13:16:52.795Z,56.85
2023-04-29T13:19:54.472Z,55.29
2023-04-29T13:22:56.452Z,55.29
2023-04-29T13:25:57.817Z,54.85
2023-04-29T13:28:59.103Z,55.72
2023-04-29T13:32:00.631Z,54.76
2023-04-29T13:35:02.004Z,54.67
2023-04-29T13:38:04.425Z,53.49
2023-04-29T13:41:11.030Z,54.00
2023-04-29T13:44:27.357Z,54.72
2023-04-29T13:47:32.184Z,54.62
2023-04-29T13:51:03.950Z,55.28
2023-04-29T13:54:37.306Z,55.06
2023-04-29T13:58:00.503Z,55.86
2023-04-29T14:01:05.883Z,56.29
2023-04-29T14:04:01.027Z,55.70
2023-04-29T14:07:02.656Z,55.80
2023-04-29T14:10:05.683Z,55.91
2023-04-29T14:13:07.031Z,54.43
2023-04-29T14:16:08.769Z,54.23
2023-04-29T14:19:10.889Z,52.50
2023-04-29T14:22:12.735Z,50.69
2023-04-29T14:25:15.060Z,51.44
2023-04-29T14:28:16.468Z,51.72
2023-04-29T14:31:17.845Z,49.26
2023-04-29T14:34:19.158Z,50.68
2023-04-29T14:37:20.659Z,50.24
2023-04-29T14:40:22.823Z,50.01
2023-04-29T14:43:24.247Z,48.73
2023-04-29T14:46:25.692Z,49.45
2023-04-29T14:49:28.585Z,49.36
2023-04-29T14:52:30.930Z,49.08
2023-04-29T14:55:33.370Z,49.73
2023-04-29T14:58:35.043Z,49.70
2023-04-29T15:01:36.486Z,49.93
2023-04-29T15:04:39.127Z,50.37
2023-04-29T15:07:40.848Z,50.92
2023-04-29T15:10:43.471Z,51.86
2023-04-29T15:13:44.835Z,52.06
2023-04-29T15:16:46.567Z,52.01
2023-04-29T15:19:47.862Z,53.20
2023-04-29T15:22:49.418Z,52.63
2023-04-29T15:25:52.177Z,52.63
2023-04-29T15:28:53.625Z,53.69
2023-04-29T15:31:55.192Z,53.68
2023-04-29T15:34:56.931Z,53.68
2023-04-29T15:37:58.854Z,53.94
2023-04-29T15:41:02.161Z,54.45
2023-04-29T15:44:03.612Z,54.51
2023-04-29T15:47:04.924Z,54.97
2023-04-29T15:50:08.745Z,54.97
2023-04-29T15:53:10.037Z,56.24
2023-04-29T15:56:12.675Z,55.76
2023-04-29T15:59:15.050Z,55.91
2023-04-29T16:02:16.607Z,56.00
2023-04-29T16:05:18.052Z,56.22
2023-04-29T16:08:19.378Z,55.94
2023-04-29T16:11:21.822Z,56.19
2023-04-29T16:14:23.319Z,56.63
2023-04-29T16:17:25.828Z,55.90
2023-04-29T16:20:27.117Z,56.57
2023-04-29T16:23:28.643Z,54.69
2023-04-29T16:26:31.219Z,52.50
2023-04-29T16:29:32.683Z,51.62
2023-04-29T16:32:34.175Z,48.11
2023-04-29T16:35:36.276Z,44.99
2023-04-29T16:38:37.618Z,45.85
2023-04-29T16:41:39.632Z,45.73
2023-04-29T16:44:40.965Z,45.26
2023-04-29T16:47:42.383Z,44.97
2023-04-29T16:50:43.778Z,43.99
2023-04-29T16:53:45.378Z,42.89
2023-04-29T16:56:48.910Z,42.88
2023-04-29T16:59:52.528Z,42.30
2023-04-29T17:02:57.553Z,43.47
2023-04-29T17:05:59.239Z,42.74
2023-04-29T17:09:01.634Z,43.07
2023-04-29T17:12:05.875Z,42.18
2023-04-29T17:15:08.170Z,43.66
2023-04-29T17:18:09.484Z,43.48
2023-04-29T17:21:11.040Z,44.80
2023-04-29T17:24:12.409Z,44.26
2023-04-29T17:27:14.516Z,43.20
2023-04-29T17:30:15.856Z,43.67
2023-04-29T17:33:17.440Z,42.36
2023-04-29T17:36:18.856Z,43.84
2023-04-29T17:39:20.192Z,44.00
2023-04-29T17:42:22.318Z,44.32
2023-04-29T17:45:24.451Z,44.51
2023-04-29T17:48:25.890Z,44.21
2023-04-29T17:51:27.829Z,44.25
2023-04-29T17:54:29.401Z,45.22
2023-04-29T17:57:31.388Z,46.03
2023-04-29T18:00:34.469Z,45.75
2023-04-29T18:03:35.892Z,46.12
2023-04-29T18:06:37.428Z,46.67
2023-04-29T18:09:38.871Z,46.52
2023-04-29T18:12:40.998Z,47.13
2023-04-29T18:15:42.557Z,47.46
2023-04-29T18:18:43.861Z,48.01
2023-04-29T18:21:45.364Z,48.08
2023-04-29T18:24:47.637Z,48.37
2023-04-29T18:27:49.597Z,48.68
2023-04-29T18:30:51.596Z,48.74
2023-04-29T18:33:52.916Z,49.60
2023-04-29T18:36:54.357Z,49.70
2023-04-29T18:39:55.903Z,49.85
2023-04-29T18:42:58.331Z,51.03
2023-04-29T18:46:00.307Z,51.21
2023-04-29T18:49:01.663Z,51.31
2023-04-29T18:52:04.009Z,51.85
2023-04-29T18:55:06.022Z,52.34
2023-04-29T18:58:08.646Z,52.64
2023-04-29T19:01:10.077Z,52.86
2023-04-29T19:04:11.974Z,53.09
2023-04-29T19:07:13.337Z,53.36
2023-04-29T19:10:14.866Z,54.74
2023-04-29T19:13:16.928Z,54.98
2023-04-29T19:16:18.589Z,54.60
2023-04-29T19:19:20.029Z,55.53
2023-04-29T19:22:21.554Z,56.16
2023-04-29T19:25:25.128Z,55.96
2023-04-29T19:28:27.164Z,57.41
2023-04-29T19:31:28.722Z,57.78
2023-04-29T19:34:30.582Z,57.62
2023-04-29T19:37:32.131Z,58.46
2023-04-29T19:40:33.710Z,57.88
2023-04-29T19:43:35.831Z,58.27
2023-04-29T19:46:37.337Z,58.33
2023-04-29T19:49:38.787Z,57.77
2023-04-29T19:52:40.230Z,59.07
2023-04-29T19:55:41.823Z,59.24
2023-04-29T19:58:43.970Z,59.65
2023-04-29T20:01:45.560Z,60.10
2023-04-29T20:04:47.432Z,59.62
2023-04-29T20:07:49.212Z,60.66
2023-04-29T20:10:50.644Z,60.53
2023-04-29T20:13:53.115Z,60.08
2023-04-29T20:16:54.517Z,60.35
2023-04-29T20:19:56.212Z,61.15
2023-04-29T20:22:59.584Z,60.40
2023-04-29T20:26:01.559Z,60.93
2023-04-29T20:29:03.797Z,61.15
2023-04-29T20:32:05.513Z,61.76
2023-04-29T20:35:07.881Z,61.71
2023-04-29T20:38:09.140Z,61.77
2023-04-29T20:41:10.585Z,62.07
2023-04-29T20:44:12.538Z,62.25
2023-04-29T20:47:13.977Z,62.22
2023-04-29T20:50:15.291Z,62.41
2023-04-29T20:53:16.707Z,62.87
2023-04-29T20:56:18.144Z,63.13
2023-04-29T20:59:20.165Z,63.35
2023-04-29T21:02:21.671Z,63.72
2023-04-29T21:05:23.082Z,64.15
2023-04-29T21:08:24.658Z,63.65
2023-04-29T21:11:26.001Z,63.27
2023-04-29T21:14:28.069Z,63.96
2023-04-29T21:17:29.633Z,63.51
2023-04-29T21:20:31.096Z,63.52
2023-04-29T21:23:32.694Z,63.77
2023-04-29T21:26:33.982Z,63.32
2023-04-29T21:29:39.988Z,63.13
2023-04-29T21:32:41.443Z,62.26
2023-04-29T21:35:42.937Z,62.16
2023-04-29T21:38:44.274Z,61.46
2023-04-29T21:41:46.365Z,60.57
2023-04-29T21:44:48.447Z,60.50
2023-04-29T21:47:49.917Z,59.76
2023-04-29T21:50:51.576Z,60.24
2023-04-29T21:53:52.990Z,60.25
2023-04-29T21:56:54.454Z,59.86
2023-04-29T21:59:59.419Z,60.02
2023-04-29T22:03:01.935Z,60.30
2023-04-29T22:06:03.661Z,60.21
2023-04-29T22:09:05.911Z,60.11
2023-04-29T22:12:07.273Z,60.57
2023-04-29T22:15:17.454Z,60.60
2023-04-29T22:18:29.269Z,60.48
2023-04-29T22:21:31.011Z,60.89
2023-04-29T22:24:32.324Z,61.12
2023-04-29T22:27:33.767Z,60.81
2023-04-29T22:30:35.799Z,61.49
2023-04-29T22:33:37.297Z,60.79
2023-04-29T22:36:39.245Z,61.55
2023-04-29T22:39:40.689Z,61.46
2023-04-29T22:42:42.187Z,61.58
2023-04-29T22:45:50.629Z,61.80
2023-04-29T22:48:52.067Z,61.84
2023-04-29T22:51:53.629Z,61.60
2023-04-29T22:54:55.058Z,60.86
2023-04-29T22:57:56.347Z,60.60
2023-04-29T23:00:58.508Z,60.71
2023-04-29T23:03:59.797Z,60.51
2023-04-29T23:07:01.392Z,59.90
2023-04-29T23:10:02.744Z,60.25
2023-04-29T23:13:04.222Z,60.22
2023-04-29T23:16:10.033Z,59.22
2023-04-29T23:19:12.076Z,59.56
2023-04-29T23:22:13.546Z,59.79
2023-04-29T23:25:15.077Z,60.31
2023-04-29T23:28:16.500Z,60.74
2023-04-29T23:31:18.506Z,61.19
2023-04-29T23:34:20.089Z,61.52
2023-04-29T23:37:24.486Z,61.72
2023-04-29T23:40:26.101Z,61.53
2023-04-29T23:43:29.120Z,62.22
2023-04-29T23:46:31.167Z,62.44
2023-04-29T23:49:33.447Z,62.84
2023-04-29T23:52:35.355Z,62.45
2023-04-29T23:55:36.976Z,62.47
2023-04-29T23:58:38.431Z,62.55
